sensor_id;sensor_type;location;lat;lon;timestamp;P1;durP1;ratioP1;P2;durP2;ratioP2
7657;SDS011;8462;53.156;8.220;2022-11-20T00:00:17;14.93;;;8.57;;
7657;SDS011;8462;53.156;8.220;2022-11-20T00:02:44;17.03;;;10.97;;
7657;SDS011;8462;53.156;8.220;2022-11-20T00:05:11;20.60;;;10.87;;
7657;SDS011;8462;53.156;8.220;2022-11-20T00:07:39;17.13;;;11.13;;
7657;SDS011;8462;53.156;8.220;2022-11-20T00:10:06;18.57;;;11.03;;
7657;SDS011;8462;53.156;8.220;2022-11-20T00:12:34;15.70;;;10.30;;
7657;SDS011;8462;53.156;8.220;2022-11-20T00:15:00;15.63;;;10.00;;
7657;SDS011;8462;53.156;8.220;2022-11-20T00:17:28;17.87;;;10.00;;
7657;SDS011;8462;53.156;8.220;2022-11-20T00:19:54;15.90;;;9.90;;
7657;SDS011;8462;53.156;8.220;2022-11-20T00:22:21;18.13;;;10.23;;
7657;SDS011;8462;53.156;8.220;2022-11-20T00:24:50;19.23;;;10.50;;
7657;SDS011;8462;53.156;8.220;2022-11-20T00:27:17;14.67;;;9.90;;
7657;SDS011;8462;53.156;8.220;2022-11-20T00:29:44;13.07;;;8.83;;
7657;SDS011;8462;53.156;8.220;2022-11-20T00:32:11;14.90;;;9.70;;
7657;SDS011;8462;53.156;8.220;2022-11-20T00:34:38;13.33;;;9.40;;
7657;SDS011;8462;53.156;8.220;2022-11-20T00:37:05;13.60;;;9.03;;
7657;SDS011;8462;53.156;8.220;2022-11-20T00:39:32;14.40;;;9.03;;
7657;SDS011;8462;53.156;8.220;2022-11-20T00:42:00;13.80;;;8.10;;
7657;SDS011;8462;53.156;8.220;2022-11-20T00:44:27;12.63;;;8.83;;
7657;SDS011;8462;53.156;8.220;2022-11-20T00:46:54;15.77;;;9.40;;
7657;SDS011;8462;53.156;8.220;2022-11-20T00:49:21;10.57;;;7.93;;
7657;SDS011;8462;53.156;8.220;2022-11-20T00:51:47;11.10;;;7.57;;
7657;SDS011;8462;53.156;8.220;2022-11-20T00:54:14;14.83;;;8.27;;
7657;SDS011;8462;53.156;8.220;2022-11-20T00:56:41;12.73;;;8.37;;
7657;SDS011;8462;53.156;8.220;2022-11-20T00:59:10;13.77;;;8.37;;
7657;SDS011;8462;53.156;8.220;2022-11-20T01:01:37;15.17;;;8.67;;
7657;SDS011;8462;53.156;8.220;2022-11-20T01:04:04;14.27;;;8.73;;
7657;SDS011;8462;53.156;8.220;2022-11-20T01:06:32;12.23;;;8.03;;
7657;SDS011;8462;53.156;8.220;2022-11-20T01:09:01;13.23;;;9.10;;
7657;SDS011;8462;53.156;8.220;2022-11-20T01:11:31;14.37;;;8.87;;
7657;SDS011;8462;53.156;8.220;2022-11-20T01:13:59;10.40;;;7.80;;
7657;SDS011;8462;53.156;8.220;2022-11-20T01:16:30;12.67;;;8.33;;
7657;SDS011;8462;53.156;8.220;2022-11-20T01:19:04;11.93;;;8.17;;
7657;SDS011;8462;53.156;8.220;2022-11-20T01:21:33;15.63;;;8.70;;
7657;SDS011;8462;53.156;8.220;2022-11-20T01:24:02;14.87;;;8.33;;
7657;SDS011;8462;53.156;8.220;2022-11-20T01:26:33;12.93;;;8.87;;
7657;SDS011;8462;53.156;8.220;2022-11-20T01:29:02;12.77;;;8.70;;
7657;SDS011;8462;53.156;8.220;2022-11-20T01:31:31;14.07;;;8.87;;
7657;SDS011;8462;53.156;8.220;2022-11-20T01:34:04;12.97;;;8.60;;
7657;SDS011;8462;53.156;8.220;2022-11-20T01:36:33;12.90;;;8.23;;
7657;SDS011;8462;53.156;8.220;2022-11-20T01:39:04;13.30;;;8.40;;
7657;SDS011;8462;53.156;8.220;2022-11-20T01:41:32;14.13;;;8.77;;
7657;SDS011;8462;53.156;8.220;2022-11-20T01:44:18;11.43;;;7.67;;
7657;SDS011;8462;53.156;8.220;2022-11-20T01:46:51;13.23;;;8.17;;
7657;SDS011;8462;53.156;8.220;2022-11-20T01:49:24;14.70;;;8.73;;
7657;SDS011;8462;53.156;8.220;2022-11-20T01:51:54;13.17;;;8.37;;
7657;SDS011;8462;53.156;8.220;2022-11-20T01:54:25;17.53;;;9.37;;
7657;SDS011;8462;53.156;8.220;2022-11-20T01:56:58;14.47;;;7.70;;
7657;SDS011;8462;53.156;8.220;2022-11-20T01:59:28;12.93;;;8.50;;
7657;SDS011;8462;53.156;8.220;2022-11-20T02:01:57;12.77;;;8.00;;
7657;SDS011;8462;53.156;8.220;2022-11-20T02:04:24;14.57;;;8.53;;
7657;SDS011;8462;53.156;8.220;2022-11-20T02:06:51;12.83;;;7.63;;
7657;SDS011;8462;53.156;8.220;2022-11-20T02:09:25;13.90;;;8.17;;
7657;SDS011;8462;53.156;8.220;2022-11-20T02:11:52;16.73;;;9.17;;
7657;SDS011;8462;53.156;8.220;2022-11-20T02:14:20;12.90;;;8.10;;
7657;SDS011;8462;53.156;8.220;2022-11-20T02:16:47;12.47;;;8.43;;
7657;SDS011;8462;53.156;8.220;2022-11-20T02:19:19;11.10;;;7.80;;
7657;SDS011;8462;53.156;8.220;2022-11-20T02:21:54;10.77;;;7.30;;
7657;SDS011;8462;53.156;8.220;2022-11-20T02:24:26;15.57;;;9.27;;
7657;SDS011;8462;53.156;8.220;2022-11-20T02:26:54;12.60;;;7.60;;
7657;SDS011;8462;53.156;8.220;2022-11-20T02:29:28;14.87;;;7.87;;
7657;SDS011;8462;53.156;8.220;2022-11-20T02:32:00;11.87;;;7.73;;
7657;SDS011;8462;53.156;8.220;2022-11-20T02:34:28;11.23;;;7.17;;
7657;SDS011;8462;53.156;8.220;2022-11-20T02:36:55;11.50;;;6.73;;
7657;SDS011;8462;53.156;8.220;2022-11-20T02:39:24;12.27;;;7.23;;
7657;SDS011;8462;53.156;8.220;2022-11-20T02:41:55;10.27;;;7.03;;
7657;SDS011;8462;53.156;8.220;2022-11-20T02:44:23;12.57;;;7.10;;
7657;SDS011;8462;53.156;8.220;2022-11-20T02:46:50;13.17;;;7.27;;
7657;SDS011;8462;53.156;8.220;2022-11-20T02:49:17;10.40;;;6.60;;
7657;SDS011;8462;53.156;8.220;2022-11-20T02:51:44;11.40;;;7.10;;
7657;SDS011;8462;53.156;8.220;2022-11-20T02:54:10;13.57;;;7.03;;
7657;SDS011;8462;53.156;8.220;2022-11-20T02:56:39;12.77;;;7.50;;
7657;SDS011;8462;53.156;8.220;2022-11-20T02:59:06;12.47;;;7.33;;
7657;SDS011;8462;53.156;8.220;2022-11-20T03:01:33;11.83;;;7.03;;
7657;SDS011;8462;53.156;8.220;2022-11-20T03:04:00;11.57;;;6.80;;
7657;SDS011;8462;53.156;8.220;2022-11-20T03:06:28;10.30;;;7.20;;
7657;SDS011;8462;53.156;8.220;2022-11-20T03:08:55;11.37;;;6.27;;
7657;SDS011;8462;53.156;8.220;2022-11-20T03:11:21;10.77;;;6.53;;
7657;SDS011;8462;53.156;8.220;2022-11-20T03:13:50;11.53;;;6.67;;
7657;SDS011;8462;53.156;8.220;2022-11-20T03:16:18;11.20;;;6.63;;
7657;SDS011;8462;53.156;8.220;2022-11-20T03:18:46;11.23;;;6.57;;
7657;SDS011;8462;53.156;8.220;2022-11-20T03:21:14;10.73;;;6.70;;
7657;SDS011;8462;53.156;8.220;2022-11-20T03:23:41;9.57;;;6.27;;
7657;SDS011;8462;53.156;8.220;2022-11-20T03:26:09;11.87;;;6.40;;
7657;SDS011;8462;53.156;8.220;2022-11-20T03:28:37;10.10;;;6.40;;
7657;SDS011;8462;53.156;8.220;2022-11-20T03:31:07;9.43;;;6.37;;
7657;SDS011;8462;53.156;8.220;2022-11-20T03:33:35;7.50;;;5.93;;
7657;SDS011;8462;53.156;8.220;2022-11-20T03:36:02;9.33;;;5.43;;
7657;SDS011;8462;53.156;8.220;2022-11-20T03:38:30;12.27;;;6.60;;
7657;SDS011;8462;53.156;8.220;2022-11-20T03:40:58;10.37;;;6.07;;
7657;SDS011;8462;53.156;8.220;2022-11-20T03:43:26;10.57;;;6.30;;
7657;SDS011;8462;53.156;8.220;2022-11-20T03:45:53;10.20;;;6.40;;
7657;SDS011;8462;53.156;8.220;2022-11-20T03:48:21;9.17;;;6.00;;
7657;SDS011;8462;53.156;8.220;2022-11-20T03:50:48;11.03;;;6.60;;
7657;SDS011;8462;53.156;8.220;2022-11-20T03:53:15;8.43;;;6.20;;
7657;SDS011;8462;53.156;8.220;2022-11-20T03:55:42;9.57;;;6.30;;
7657;SDS011;8462;53.156;8.220;2022-11-20T03:58:09;10.77;;;6.40;;
7657;SDS011;8462;53.156;8.220;2022-11-20T04:00:36;8.90;;;5.50;;
7657;SDS011;8462;53.156;8.220;2022-11-20T04:03:03;9.23;;;5.83;;
7657;SDS011;8462;53.156;8.220;2022-11-20T04:05:32;8.07;;;5.60;;
7657;SDS011;8462;53.156;8.220;2022-11-20T04:07:59;10.10;;;5.77;;
7657;SDS011;8462;53.156;8.220;2022-11-20T04:10:26;9.43;;;5.57;;
7657;SDS011;8462;53.156;8.220;2022-11-20T04:12:53;8.57;;;5.57;;
7657;SDS011;8462;53.156;8.220;2022-11-20T04:15:20;7.60;;;5.17;;
7657;SDS011;8462;53.156;8.220;2022-11-20T04:17:47;10.83;;;6.60;;
7657;SDS011;8462;53.156;8.220;2022-11-20T04:20:14;11.00;;;6.13;;
7657;SDS011;8462;53.156;8.220;2022-11-20T04:22:42;9.60;;;5.70;;
7657;SDS011;8462;53.156;8.220;2022-11-20T04:25:09;8.53;;;5.40;;
7657;SDS011;8462;53.156;8.220;2022-11-20T04:27:36;8.77;;;5.37;;
7657;SDS011;8462;53.156;8.220;2022-11-20T04:30:03;7.07;;;4.97;;
7657;SDS011;8462;53.156;8.220;2022-11-20T04:32:30;8.47;;;5.63;;
7657;SDS011;8462;53.156;8.220;2022-11-20T04:34:58;8.97;;;4.73;;
7657;SDS011;8462;53.156;8.220;2022-11-20T04:37:24;7.50;;;4.90;;
7657;SDS011;8462;53.156;8.220;2022-11-20T04:39:53;8.90;;;4.80;;
7657;SDS011;8462;53.156;8.220;2022-11-20T04:42:19;7.07;;;5.00;;
7657;SDS011;8462;53.156;8.220;2022-11-20T04:44:55;6.73;;;5.00;;
7657;SDS011;8462;53.156;8.220;2022-11-20T04:47:23;8.00;;;5.37;;
7657;SDS011;8462;53.156;8.220;2022-11-20T04:49:50;8.87;;;5.23;;
7657;SDS011;8462;53.156;8.220;2022-11-20T04:52:17;7.73;;;4.83;;
7657;SDS011;8462;53.156;8.220;2022-11-20T04:54:44;7.20;;;5.03;;
7657;SDS011;8462;53.156;8.220;2022-11-20T04:57:13;6.57;;;4.73;;
7657;SDS011;8462;53.156;8.220;2022-11-20T04:59:41;7.90;;;4.87;;
7657;SDS011;8462;53.156;8.220;2022-11-20T05:02:08;7.03;;;4.27;;
7657;SDS011;8462;53.156;8.220;2022-11-20T05:04:35;7.83;;;5.10;;
7657;SDS011;8462;53.156;8.220;2022-11-20T05:07:02;6.77;;;4.93;;
7657;SDS011;8462;53.156;8.220;2022-11-20T05:09:29;6.97;;;4.77;;
7657;SDS011;8462;53.156;8.220;2022-11-20T05:11:56;7.87;;;4.63;;
7657;SDS011;8462;53.156;8.220;2022-11-20T05:14:24;6.47;;;4.50;;
7657;SDS011;8462;53.156;8.220;2022-11-20T05:16:51;6.93;;;4.93;;
7657;SDS011;8462;53.156;8.220;2022-11-20T05:19:18;7.77;;;5.00;;
7657;SDS011;8462;53.156;8.220;2022-11-20T05:21:45;8.20;;;4.50;;
7657;SDS011;8462;53.156;8.220;2022-11-20T05:24:12;9.27;;;5.00;;
7657;SDS011;8462;53.156;8.220;2022-11-20T05:26:39;9.27;;;4.60;;
7657;SDS011;8462;53.156;8.220;2022-11-20T05:29:06;8.03;;;4.80;;
7657;SDS011;8462;53.156;8.220;2022-11-20T05:31:34;6.93;;;4.57;;
7657;SDS011;8462;53.156;8.220;2022-11-20T05:34:02;7.07;;;5.00;;
7657;SDS011;8462;53.156;8.220;2022-11-20T05:36:29;10.37;;;5.57;;
7657;SDS011;8462;53.156;8.220;2022-11-20T05:38:56;7.97;;;4.73;;
7657;SDS011;8462;53.156;8.220;2022-11-20T05:41:23;9.87;;;5.30;;
7657;SDS011;8462;53.156;8.220;2022-11-20T05:43:51;9.63;;;5.23;;
7657;SDS011;8462;53.156;8.220;2022-11-20T05:46:19;10.17;;;5.07;;
7657;SDS011;8462;53.156;8.220;2022-11-20T05:48:48;10.30;;;5.33;;
7657;SDS011;8462;53.156;8.220;2022-11-20T05:51:16;9.07;;;5.00;;
7657;SDS011;8462;53.156;8.220;2022-11-20T05:53:45;7.20;;;5.43;;
7657;SDS011;8462;53.156;8.220;2022-11-20T05:56:12;7.67;;;5.17;;
7657;SDS011;8462;53.156;8.220;2022-11-20T05:58:41;6.67;;;5.40;;
7657;SDS011;8462;53.156;8.220;2022-11-20T06:01:09;9.87;;;6.17;;
7657;SDS011;8462;53.156;8.220;2022-11-20T06:03:37;9.10;;;5.47;;
7657;SDS011;8462;53.156;8.220;2022-11-20T06:06:07;10.03;;;6.10;;
7657;SDS011;8462;53.156;8.220;2022-11-20T06:08:34;10.17;;;6.03;;
7657;SDS011;8462;53.156;8.220;2022-11-20T06:11:04;7.37;;;5.80;;
7657;SDS011;8462;53.156;8.220;2022-11-20T06:13:32;9.40;;;6.10;;
7657;SDS011;8462;53.156;8.220;2022-11-20T06:15:59;9.70;;;5.93;;
7657;SDS011;8462;53.156;8.220;2022-11-20T06:18:27;10.37;;;6.40;;
7657;SDS011;8462;53.156;8.220;2022-11-20T06:21:01;9.80;;;6.00;;
7657;SDS011;8462;53.156;8.220;2022-11-20T06:23:32;8.17;;;6.10;;
7657;SDS011;8462;53.156;8.220;2022-11-20T06:26:01;12.90;;;6.57;;
7657;SDS011;8462;53.156;8.220;2022-11-20T06:28:28;7.83;;;5.90;;
7657;SDS011;8462;53.156;8.220;2022-11-20T06:30:55;9.93;;;6.03;;
7657;SDS011;8462;53.156;8.220;2022-11-20T06:33:23;9.43;;;6.00;;
7657;SDS011;8462;53.156;8.220;2022-11-20T06:35:51;9.93;;;5.87;;
7657;SDS011;8462;53.156;8.220;2022-11-20T06:38:18;12.10;;;5.90;;
7657;SDS011;8462;53.156;8.220;2022-11-20T06:40:46;10.70;;;6.63;;
7657;SDS011;8462;53.156;8.220;2022-11-20T06:43:13;9.77;;;6.47;;
7657;SDS011;8462;53.156;8.220;2022-11-20T06:45:40;9.93;;;6.43;;
7657;SDS011;8462;53.156;8.220;2022-11-20T06:48:06;10.20;;;7.10;;
7657;SDS011;8462;53.156;8.220;2022-11-20T06:50:35;11.27;;;6.33;;
7657;SDS011;8462;53.156;8.220;2022-11-20T06:53:04;8.17;;;6.07;;
7657;SDS011;8462;53.156;8.220;2022-11-20T06:55:31;12.03;;;6.97;;
7657;SDS011;8462;53.156;8.220;2022-11-20T06:57:59;10.13;;;6.23;;
7657;SDS011;8462;53.156;8.220;2022-11-20T07:00:26;8.83;;;6.23;;
7657;SDS011;8462;53.156;8.220;2022-11-20T07:02:53;9.30;;;6.30;;
7657;SDS011;8462;53.156;8.220;2022-11-20T07:05:20;9.03;;;6.83;;
7657;SDS011;8462;53.156;8.220;2022-11-20T07:07:47;8.93;;;5.80;;
7657;SDS011;8462;53.156;8.220;2022-11-20T07:10:14;9.63;;;6.70;;
7657;SDS011;8462;53.156;8.220;2022-11-20T07:12:41;12.80;;;7.40;;
7657;SDS011;8462;53.156;8.220;2022-11-20T07:15:09;9.97;;;7.10;;
7657;SDS011;8462;53.156;8.220;2022-11-20T07:17:36;10.27;;;6.57;;
7657;SDS011;8462;53.156;8.220;2022-11-20T07:20:03;10.23;;;6.77;;
7657;SDS011;8462;53.156;8.220;2022-11-20T07:22:31;11.60;;;7.50;;
7657;SDS011;8462;53.156;8.220;2022-11-20T07:24:58;13.67;;;7.90;;
7657;SDS011;8462;53.156;8.220;2022-11-20T07:27:25;13.90;;;7.47;;
7657;SDS011;8462;53.156;8.220;2022-11-20T07:29:52;12.20;;;7.30;;
7657;SDS011;8462;53.156;8.220;2022-11-20T07:32:21;11.13;;;7.20;;
7657;SDS011;8462;53.156;8.220;2022-11-20T07:34:47;10.80;;;6.83;;
7657;SDS011;8462;53.156;8.220;2022-11-20T07:37:14;11.60;;;6.70;;
7657;SDS011;8462;53.156;8.220;2022-11-20T07:39:42;10.43;;;6.80;;
7657;SDS011;8462;53.156;8.220;2022-11-20T07:42:09;10.80;;;8.00;;
7657;SDS011;8462;53.156;8.220;2022-11-20T07:44:37;12.13;;;7.27;;
7657;SDS011;8462;53.156;8.220;2022-11-20T07:47:04;11.10;;;7.67;;
7657;SDS011;8462;53.156;8.220;2022-11-20T07:49:33;16.37;;;8.23;;
7657;SDS011;8462;53.156;8.220;2022-11-20T07:51:59;10.33;;;7.40;;
7657;SDS011;8462;53.156;8.220;2022-11-20T07:54:26;12.67;;;7.33;;
7657;SDS011;8462;53.156;8.220;2022-11-20T07:56:53;8.87;;;6.70;;
7657;SDS011;8462;53.156;8.220;2022-11-20T07:59:20;11.93;;;7.67;;
7657;SDS011;8462;53.156;8.220;2022-11-20T08:01:47;13.23;;;7.50;;
7657;SDS011;8462;53.156;8.220;2022-11-20T08:04:15;13.63;;;7.57;;
7657;SDS011;8462;53.156;8.220;2022-11-20T08:06:44;12.10;;;7.67;;
7657;SDS011;8462;53.156;8.220;2022-11-20T08:09:14;10.90;;;7.00;;
7657;SDS011;8462;53.156;8.220;2022-11-20T08:11:41;10.50;;;7.37;;
7657;SDS011;8462;53.156;8.220;2022-11-20T08:14:25;12.40;;;7.67;;
7657;SDS011;8462;53.156;8.220;2022-11-20T08:16:52;14.07;;;7.83;;
7657;SDS011;8462;53.156;8.220;2022-11-20T08:19:19;13.37;;;8.67;;
7657;SDS011;8462;53.156;8.220;2022-11-20T08:21:48;10.07;;;7.47;;
7657;SDS011;8462;53.156;8.220;2022-11-20T08:24:14;14.03;;;8.37;;
7657;SDS011;8462;53.156;8.220;2022-11-20T08:26:41;13.87;;;8.60;;
7657;SDS011;8462;53.156;8.220;2022-11-20T08:29:08;14.53;;;9.13;;
7657;SDS011;8462;53.156;8.220;2022-11-20T08:31:35;10.83;;;7.63;;
7657;SDS011;8462;53.156;8.220;2022-11-20T08:34:02;11.87;;;8.23;;
7657;SDS011;8462;53.156;8.220;2022-11-20T08:36:32;10.17;;;7.30;;
7657;SDS011;8462;53.156;8.220;2022-11-20T08:39:01;12.13;;;8.20;;
7657;SDS011;8462;53.156;8.220;2022-11-20T08:41:28;12.97;;;8.67;;
7657;SDS011;8462;53.156;8.220;2022-11-20T08:43:58;13.10;;;8.50;;
7657;SDS011;8462;53.156;8.220;2022-11-20T08:46:27;13.03;;;8.93;;
7657;SDS011;8462;53.156;8.220;2022-11-20T08:48:59;12.20;;;8.17;;
7657;SDS011;8462;53.156;8.220;2022-11-20T08:51:26;11.67;;;7.43;;
7657;SDS011;8462;53.156;8.220;2022-11-20T08:53:53;13.67;;;8.33;;
7657;SDS011;8462;53.156;8.220;2022-11-20T08:56:21;12.30;;;7.93;;
7657;SDS011;8462;53.156;8.220;2022-11-20T08:58:49;10.70;;;7.10;;
7657;SDS011;8462;53.156;8.220;2022-11-20T09:01:16;12.23;;;7.70;;
7657;SDS011;8462;53.156;8.220;2022-11-20T09:03:43;11.20;;;8.00;;
7657;SDS011;8462;53.156;8.220;2022-11-20T09:06:10;10.70;;;7.73;;
7657;SDS011;8462;53.156;8.220;2022-11-20T09:08:37;13.47;;;8.90;;
7657;SDS011;8462;53.156;8.220;2022-11-20T09:11:04;12.33;;;7.33;;
7657;SDS011;8462;53.156;8.220;2022-11-20T09:13:34;12.20;;;8.43;;
7657;SDS011;8462;53.156;8.220;2022-11-20T09:16:02;11.83;;;8.07;;
7657;SDS011;8462;53.156;8.220;2022-11-20T09:18:31;9.27;;;7.57;;
7657;SDS011;8462;53.156;8.220;2022-11-20T09:20:59;11.70;;;8.03;;
7657;SDS011;8462;53.156;8.220;2022-11-20T09:23:26;8.87;;;7.20;;
7657;SDS011;8462;53.156;8.220;2022-11-20T09:25:53;10.87;;;6.80;;
7657;SDS011;8462;53.156;8.220;2022-11-20T09:28:24;10.73;;;7.17;;
7657;SDS011;8462;53.156;8.220;2022-11-20T09:30:53;10.03;;;7.67;;
7657;SDS011;8462;53.156;8.220;2022-11-20T09:33:20;11.63;;;7.50;;
7657;SDS011;8462;53.156;8.220;2022-11-20T09:35:49;11.60;;;7.00;;
7657;SDS011;8462;53.156;8.220;2022-11-20T09:38:15;9.50;;;7.07;;
7657;SDS011;8462;53.156;8.220;2022-11-20T09:40:44;10.80;;;7.43;;
7657;SDS011;8462;53.156;8.220;2022-11-20T09:43:16;9.37;;;7.03;;
7657;SDS011;8462;53.156;8.220;2022-11-20T09:45:50;13.40;;;6.80;;
7657;SDS011;8462;53.156;8.220;2022-11-20T09:48:36;9.23;;;6.97;;
7657;SDS011;8462;53.156;8.220;2022-11-20T09:51:35;13.80;;;7.53;;
7657;SDS011;8462;53.156;8.220;2022-11-20T09:54:13;12.57;;;8.20;;
7657;SDS011;8462;53.156;8.220;2022-11-20T09:56:44;11.00;;;7.07;;
7657;SDS011;8462;53.156;8.220;2022-11-20T09:59:26;11.47;;;7.90;;
7657;SDS011;8462;53.156;8.220;2022-11-20T10:02:01;12.47;;;7.60;;
7657;SDS011;8462;53.156;8.220;2022-11-20T10:04:32;10.30;;;7.27;;
7657;SDS011;8462;53.156;8.220;2022-11-20T10:07:12;9.57;;;6.73;;
7657;SDS011;8462;53.156;8.220;2022-11-20T10:09:43;13.07;;;7.63;;
7657;SDS011;8462;53.156;8.220;2022-11-20T10:12:18;9.90;;;7.37;;
7657;SDS011;8462;53.156;8.220;2022-11-20T10:14:56;12.57;;;7.30;;
7657;SDS011;8462;53.156;8.220;2022-11-20T10:17:43;11.70;;;7.57;;
7657;SDS011;8462;53.156;8.220;2022-11-20T10:20:24;10.00;;;6.93;;
7657;SDS011;8462;53.156;8.220;2022-11-20T10:25:50;11.53;;;6.83;;
7657;SDS011;8462;53.156;8.220;2022-11-20T10:28:27;10.33;;;6.73;;
7657;SDS011;8462;53.156;8.220;2022-11-20T10:31:04;10.60;;;6.97;;
7657;SDS011;8462;53.156;8.220;2022-11-20T10:33:36;13.47;;;6.97;;
7657;SDS011;8462;53.156;8.220;2022-11-20T10:36:09;13.53;;;6.97;;
7657;SDS011;8462;53.156;8.220;2022-11-20T10:38:43;11.27;;;7.00;;
7657;SDS011;8462;53.156;8.220;2022-11-20T10:41:16;9.27;;;6.20;;
7657;SDS011;8462;53.156;8.220;2022-11-20T10:43:53;8.60;;;5.97;;
7657;SDS011;8462;53.156;8.220;2022-11-20T10:46:37;10.90;;;6.30;;
7657;SDS011;8462;53.156;8.220;2022-11-20T10:49:12;8.70;;;5.80;;
7657;SDS011;8462;53.156;8.220;2022-11-20T10:51:43;11.30;;;6.90;;
7657;SDS011;8462;53.156;8.220;2022-11-20T10:54:25;8.47;;;6.37;;
7657;SDS011;8462;53.156;8.220;2022-11-20T10:57:03;9.00;;;6.20;;
7657;SDS011;8462;53.156;8.220;2022-11-20T10:59:46;10.30;;;6.43;;
7657;SDS011;8462;53.156;8.220;2022-11-20T11:02:24;9.33;;;5.87;;
7657;SDS011;8462;53.156;8.220;2022-11-20T11:05:01;8.97;;;6.27;;
7657;SDS011;8462;53.156;8.220;2022-11-20T11:07:37;11.00;;;7.43;;
7657;SDS011;8462;53.156;8.220;2022-11-20T11:10:12;10.03;;;6.20;;
7657;SDS011;8462;53.156;8.220;2022-11-20T11:12:43;8.03;;;6.13;;
7657;SDS011;8462;53.156;8.220;2022-11-20T11:15:13;11.30;;;6.77;;
7657;SDS011;8462;53.156;8.220;2022-11-20T11:17:50;8.27;;;6.30;;
7657;SDS011;8462;53.156;8.220;2022-11-20T11:20:18;12.07;;;6.87;;
7657;SDS011;8462;53.156;8.220;2022-11-20T11:22:48;7.33;;;5.50;;
7657;SDS011;8462;53.156;8.220;2022-11-20T11:25:20;7.83;;;5.67;;
7657;SDS011;8462;53.156;8.220;2022-11-20T11:27:56;8.57;;;5.80;;
7657;SDS011;8462;53.156;8.220;2022-11-20T11:30:24;8.83;;;6.20;;
7657;SDS011;8462;53.156;8.220;2022-11-20T11:33:02;7.40;;;5.20;;
7657;SDS011;8462;53.156;8.220;2022-11-20T11:35:32;7.77;;;5.60;;
7657;SDS011;8462;53.156;8.220;2022-11-20T11:38:03;7.00;;;5.37;;
7657;SDS011;8462;53.156;8.220;2022-11-20T11:40:32;8.93;;;5.77;;
7657;SDS011;8462;53.156;8.220;2022-11-20T11:43:02;7.73;;;5.20;;
7657;SDS011;8462;53.156;8.220;2022-11-20T11:45:52;7.53;;;5.47;;
7657;SDS011;8462;53.156;8.220;2022-11-20T11:48:19;7.37;;;5.23;;
7657;SDS011;8462;53.156;8.220;2022-11-20T11:50:49;7.93;;;5.97;;
7657;SDS011;8462;53.156;8.220;2022-11-20T11:53:17;7.53;;;5.37;;
7657;SDS011;8462;53.156;8.220;2022-11-20T11:55:49;9.20;;;5.23;;
7657;SDS011;8462;53.156;8.220;2022-11-20T11:58:28;8.67;;;5.93;;
7657;SDS011;8462;53.156;8.220;2022-11-20T12:01:07;7.63;;;5.23;;
7657;SDS011;8462;53.156;8.220;2022-11-20T12:03:40;8.27;;;5.73;;
7657;SDS011;8462;53.156;8.220;2022-11-20T12:06:12;8.33;;;5.43;;
7657;SDS011;8462;53.156;8.220;2022-11-20T12:08:42;7.80;;;5.23;;
7657;SDS011;8462;53.156;8.220;2022-11-20T12:11:16;7.70;;;5.40;;
7657;SDS011;8462;53.156;8.220;2022-11-20T12:13:48;7.40;;;5.23;;
7657;SDS011;8462;53.156;8.220;2022-11-20T12:16:20;10.47;;;6.30;;
7657;SDS011;8462;53.156;8.220;2022-11-20T12:18:48;7.83;;;5.87;;
7657;SDS011;8462;53.156;8.220;2022-11-20T12:21:22;6.83;;;5.07;;
7657;SDS011;8462;53.156;8.220;2022-11-20T12:24:04;8.00;;;5.20;;
7657;SDS011;8462;53.156;8.220;2022-11-20T12:26:45;9.30;;;5.40;;
7657;SDS011;8462;53.156;8.220;2022-11-20T12:29:24;8.40;;;5.87;;
7657;SDS011;8462;53.156;8.220;2022-11-20T12:32:09;8.60;;;5.57;;
7657;SDS011;8462;53.156;8.220;2022-11-20T12:35:00;8.83;;;5.20;;
7657;SDS011;8462;53.156;8.220;2022-11-20T12:37:40;9.27;;;6.20;;
7657;SDS011;8462;53.156;8.220;2022-11-20T12:40:18;10.90;;;5.87;;
7657;SDS011;8462;53.156;8.220;2022-11-20T12:43:01;9.00;;;5.33;;
7657;SDS011;8462;53.156;8.220;2022-11-20T12:45:57;8.13;;;5.07;;
7657;SDS011;8462;53.156;8.220;2022-11-20T12:48:56;8.70;;;6.03;;
7657;SDS011;8462;53.156;8.220;2022-11-20T12:51:48;6.37;;;5.17;;
7657;SDS011;8462;53.156;8.220;2022-11-20T12:54:45;8.00;;;5.90;;
7657;SDS011;8462;53.156;8.220;2022-11-20T12:57:21;8.67;;;5.83;;
7657;SDS011;8462;53.156;8.220;2022-11-20T13:00:02;8.50;;;5.07;;
7657;SDS011;8462;53.156;8.220;2022-11-20T13:02:37;6.30;;;4.87;;
7657;SDS011;8462;53.156;8.220;2022-11-20T13:05:27;9.73;;;5.90;;
7657;SDS011;8462;53.156;8.220;2022-11-20T13:08:02;9.00;;;5.57;;
7657;SDS011;8462;53.156;8.220;2022-11-20T13:10:33;9.00;;;6.03;;
7657;SDS011;8462;53.156;8.220;2022-11-20T13:13:04;8.93;;;5.57;;
7657;SDS011;8462;53.156;8.220;2022-11-20T13:15:42;10.53;;;5.87;;
7657;SDS011;8462;53.156;8.220;2022-11-20T13:18:16;9.60;;;5.80;;
7657;SDS011;8462;53.156;8.220;2022-11-20T13:20:44;8.77;;;5.47;;
7657;SDS011;8462;53.156;8.220;2022-11-20T13:23:22;6.80;;;4.83;;
7657;SDS011;8462;53.156;8.220;2022-11-20T13:26:02;9.83;;;5.00;;
7657;SDS011;8462;53.156;8.220;2022-11-20T13:28:30;8.87;;;5.80;;
7657;SDS011;8462;53.156;8.220;2022-11-20T13:30:58;7.57;;;5.43;;
7657;SDS011;8462;53.156;8.220;2022-11-20T13:33:30;6.37;;;5.20;;
7657;SDS011;8462;53.156;8.220;2022-11-20T13:36:00;9.60;;;5.60;;
7657;SDS011;8462;53.156;8.220;2022-11-20T13:38:39;6.60;;;4.63;;
7657;SDS011;8462;53.156;8.220;2022-11-20T13:41:10;8.57;;;5.20;;
7657;SDS011;8462;53.156;8.220;2022-11-20T13:44:04;7.60;;;4.20;;
7657;SDS011;8462;53.156;8.220;2022-11-20T13:46:38;6.93;;;4.67;;
7657;SDS011;8462;53.156;8.220;2022-11-20T13:49:08;5.93;;;4.40;;
7657;SDS011;8462;53.156;8.220;2022-11-20T13:51:43;7.67;;;4.67;;
7657;SDS011;8462;53.156;8.220;2022-11-20T13:57:30;6.30;;;4.77;;
7657;SDS011;8462;53.156;8.220;2022-11-20T14:00:21;5.93;;;4.40;;
7657;SDS011;8462;53.156;8.220;2022-11-20T14:02:52;7.50;;;4.17;;
7657;SDS011;8462;53.156;8.220;2022-11-20T14:05:29;7.33;;;5.60;;
7657;SDS011;8462;53.156;8.220;2022-11-20T14:08:02;7.43;;;5.30;;
7657;SDS011;8462;53.156;8.220;2022-11-20T14:10:34;8.53;;;4.50;;
7657;SDS011;8462;53.156;8.220;2022-11-20T14:13:12;8.37;;;4.90;;
7657;SDS011;8462;53.156;8.220;2022-11-20T14:15:43;6.07;;;3.87;;
7657;SDS011;8462;53.156;8.220;2022-11-20T14:18:12;6.20;;;4.93;;
7657;SDS011;8462;53.156;8.220;2022-11-20T14:20:40;6.40;;;5.00;;
7657;SDS011;8462;53.156;8.220;2022-11-20T14:23:09;7.67;;;5.20;;
7657;SDS011;8462;53.156;8.220;2022-11-20T14:25:41;8.10;;;5.63;;
7657;SDS011;8462;53.156;8.220;2022-11-20T14:28:11;8.07;;;5.47;;
7657;SDS011;8462;53.156;8.220;2022-11-20T14:30:47;8.40;;;5.17;;
7657;SDS011;8462;53.156;8.220;2022-11-20T14:33:15;7.50;;;5.20;;
7657;SDS011;8462;53.156;8.220;2022-11-20T14:35:45;7.07;;;4.93;;
7657;SDS011;8462;53.156;8.220;2022-11-20T14:38:14;7.43;;;5.00;;
7657;SDS011;8462;53.156;8.220;2022-11-20T14:40:43;7.77;;;5.53;;
7657;SDS011;8462;53.156;8.220;2022-11-20T14:43:18;8.90;;;6.70;;
7657;SDS011;8462;53.156;8.220;2022-11-20T14:45:49;12.27;;;6.57;;
7657;SDS011;8462;53.156;8.220;2022-11-20T14:48:22;9.10;;;6.00;;
7657;SDS011;8462;53.156;8.220;2022-11-20T14:50:54;6.37;;;4.83;;
7657;SDS011;8462;53.156;8.220;2022-11-20T14:53:22;6.93;;;5.70;;
7657;SDS011;8462;53.156;8.220;2022-11-20T14:55:54;6.77;;;4.77;;
7657;SDS011;8462;53.156;8.220;2022-11-20T14:58:24;8.00;;;5.37;;
7657;SDS011;8462;53.156;8.220;2022-11-20T15:00:55;6.37;;;4.47;;
7657;SDS011;8462;53.156;8.220;2022-11-20T15:03:30;6.83;;;4.90;;
7657;SDS011;8462;53.156;8.220;2022-11-20T15:05:58;9.73;;;5.27;;
7657;SDS011;8462;53.156;8.220;2022-11-20T15:09:40;9.47;;;6.27;;
7657;SDS011;8462;53.156;8.220;2022-11-20T15:13:26;11.07;;;6.43;;
7657;SDS011;8462;53.156;8.220;2022-11-20T15:17:09;11.63;;;6.90;;
7657;SDS011;8462;53.156;8.220;2022-11-20T15:19:38;9.50;;;7.07;;
7657;SDS011;8462;53.156;8.220;2022-11-20T15:22:07;10.53;;;6.80;;
7657;SDS011;8462;53.156;8.220;2022-11-20T15:24:38;11.37;;;7.43;;
7657;SDS011;8462;53.156;8.220;2022-11-20T15:27:07;12.30;;;6.93;;
7657;SDS011;8462;53.156;8.220;2022-11-20T15:29:35;12.00;;;7.20;;
7657;SDS011;8462;53.156;8.220;2022-11-20T15:32:02;11.00;;;7.17;;
7657;SDS011;8462;53.156;8.220;2022-11-20T15:34:30;9.47;;;6.47;;
7657;SDS011;8462;53.156;8.220;2022-11-20T15:36:57;16.60;;;9.10;;